createdAt,value
2022-09-13T00:04:37.246Z,83
2022-09-13T00:10:47.870Z,84.3
2022-09-13T00:18:04.621Z,84.4
2022-09-13T00:24:15.148Z,85.1
2022-09-13T00:30:25.824Z,85
2022-09-13T00:36:36.539Z,85.5
2022-09-13T00:42:47.169Z,85.9
2022-09-13T00:48:57.815Z,86.2
2022-09-13T00:55:08.515Z,87.7
2022-09-13T01:01:19.261Z,87.7
2022-09-13T01:07:29.844Z,86.4
2022-09-13T01:13:40.597Z,86.7
2022-09-13T01:20:57.093Z,87.4
2022-09-13T01:27:07.785Z,87.8
2022-09-13T01:32:12.529Z,87.3
2022-09-13T01:38:23.153Z,87.6
2022-09-13T01:44:33.857Z,87.7
2022-09-13T01:50:44.621Z,88.6
2022-09-13T01:56:55.156Z,89.2
2022-09-13T02:03:05.821Z,89.2
2022-09-13T02:09:20.720Z,89.4
2022-09-13T02:15:27.197Z,91.2
2022-09-13T02:21:29.653Z,90.8
2022-09-13T02:27:40.316Z,90.7
2022-09-13T02:33:50.985Z,90.7
2022-09-13T02:40:01.717Z,90
2022-09-13T02:46:12.582Z,90
2022-09-13T02:51:25.239Z,89.3
2022-09-13T02:57:35.887Z,91
2022-09-13T03:03:46.585Z,90.5
2022-09-13T03:09:57.225Z,89.2
2022-09-13T03:16:08.011Z,87.3
2022-09-13T03:22:10.396Z,88.2
2022-09-13T03:28:21.033Z,88.4
2022-09-13T03:34:31.733Z,90
2022-09-13T03:40:42.370Z,88.7
2022-09-13T03:46:53.034Z,92.4
2022-09-13T03:53:03.691Z,91.4
2022-09-13T03:59:14.421Z,95.5
2022-09-13T04:05:25.023Z,91.4
2022-09-13T04:11:35.706Z,93.4
2022-09-13T04:17:46.419Z,94.2
2022-09-13T04:23:48.832Z,96.4
2022-09-13T04:29:59.530Z,95.3
2022-09-13T04:36:10.286Z,96.3
2022-09-13T04:42:20.839Z,97.1
2022-09-13T04:48:31.514Z,94.8
2022-09-13T04:54:42.203Z,96.6
2022-09-13T05:00:52.889Z,97.1
2022-09-13T05:07:03.507Z,94.2
2022-09-13T05:13:14.279Z,93.9
2022-09-13T05:18:27.083Z,93.1
2022-09-13T05:24:29.551Z,92.7
2022-09-13T05:30:42.304Z,92.7
2022-09-13T05:36:54.083Z,92.7
2022-09-13T05:41:55.605Z,94
2022-09-13T05:48:06.310Z,93.8
2022-09-13T05:54:16.952Z,95.1
2022-09-13T06:00:27.617Z,94.3
2022-09-13T06:06:38.394Z,93.5
2022-09-13T06:12:48.945Z,94.8
2022-09-13T06:18:59.613Z,96.2
2022-09-13T06:25:02.140Z,94.3
2022-09-13T06:31:12.868Z,93.4
2022-09-13T06:37:23.438Z,94.8
2022-09-13T06:43:34.130Z,93.8
2022-09-13T06:49:44.771Z,91.5
2022-09-13T06:55:55.425Z,90.1
2022-09-13T07:02:06.202Z,90.1
2022-09-13T07:08:16.779Z,90.2
2022-09-13T07:14:27.431Z,88.2
2022-09-13T07:20:38.244Z,88.2
2022-09-13T07:26:40.580Z,86.6
2022-09-13T07:32:51.254Z,85.1
2022-09-13T07:39:01.932Z,87.6
2022-09-13T07:45:12.582Z,86.7
2022-09-13T07:50:25.485Z,79.9
2022-09-13T07:56:36.195Z,81.1
2022-09-13T08:02:46.940Z,75.8
2022-09-13T08:08:57.510Z,75
2022-09-13T08:15:08.183Z,73.5
2022-09-13T08:21:18.832Z,72.5
2022-09-13T08:27:21.325Z,74.1
2022-09-13T08:33:31.983Z,65.5
2022-09-13T08:39:42.686Z,61.4
2022-09-13T08:45:53.441Z,61.7
2022-09-13T08:52:04.001Z,59.5
2022-09-13T08:58:14.635Z,57.2
2022-09-13T09:04:25.312Z,54.2
2022-09-13T09:10:35.987Z,50.3
2022-09-13T09:16:46.667Z,49.4
2022-09-13T09:22:49.118Z,46.4
2022-09-13T09:28:59.813Z,46.8
2022-09-13T09:35:10.486Z,48
2022-09-13T09:41:21.141Z,49.1
2022-09-13T09:47:40.047Z,46.1
2022-09-13T09:53:50.660Z,43.7
2022-09-13T10:00:01.303Z,43.3
2022-09-13T10:06:12.097Z,44.7
2022-09-13T10:12:22.642Z,42.4
2022-09-13T10:17:35.576Z,42.4
2022-09-13T10:23:46.323Z,41.6
2022-09-13T10:29:48.716Z,39.8
2022-09-13T10:35:59.399Z,40.7
2022-09-13T10:42:10.153Z,40
2022-09-13T10:48:20.729Z,39
2022-09-13T10:54:31.393Z,40.6
2022-09-13T11:00:42.113Z,42.7
2022-09-13T11:06:52.733Z,41.9
2022-09-13T11:13:03.401Z,43.3
2022-09-13T11:19:14.077Z,44.4
2022-09-13T11:25:16.543Z,42
2022-09-13T11:31:27.282Z,43.6
2022-09-13T11:37:37.923Z,43.6
2022-09-13T11:43:48.745Z,42.7
2022-09-13T11:49:59.193Z,41.7
2022-09-13T11:56:09.908Z,45.7
2022-09-13T12:02:20.642Z,45
2022-09-13T12:08:31.207Z,44.6
2022-09-13T12:14:41.914Z,44.5
2022-09-13T12:20:52.531Z,44.3
2022-09-13T12:26:55.022Z,42.7
2022-09-13T12:33:05.735Z,44.7
2022-09-13T12:39:16.361Z,44.6
2022-09-13T12:45:27.036Z,46.2
2022-09-13T12:50:44.189Z,46.1
2022-09-13T12:56:54.892Z,47.2
2022-09-13T13:03:01.277Z,46.4
2022-09-13T13:09:11.971Z,46.4
2022-09-13T13:15:22.611Z,48
2022-09-13T13:21:33.303Z,48.8
2022-09-13T13:27:35.769Z,48.8
2022-09-13T13:33:46.418Z,45.5
2022-09-13T13:39:57.117Z,47.8
2022-09-13T13:46:07.832Z,48.6
2022-09-13T13:52:18.432Z,48.3
2022-09-13T13:57:23.167Z,50.1
2022-09-13T14:03:33.881Z,50.5
2022-09-13T14:09:44.492Z,48.2
2022-09-13T14:15:55.154Z,47.6
2022-09-13T14:22:05.961Z,48
2022-09-13T14:28:08.302Z,48
2022-09-13T14:34:18.973Z,46.7
2022-09-13T14:40:29.823Z,49.1
2022-09-13T14:46:40.348Z,48.6
2022-09-13T14:52:50.983Z,47.8
2022-09-13T14:59:01.748Z,50
2022-09-13T15:05:12.327Z,50.7
2022-09-13T15:11:23.002Z,51
2022-09-13T15:17:50.150Z,52.5
2022-09-13T15:24:00.697Z,52
2022-09-13T15:30:03.217Z,51.8
2022-09-13T15:36:13.862Z,52.3
2022-09-13T15:42:24.499Z,54.3
2022-09-13T15:48:35.164Z,54.9
2022-09-13T15:54:45.851Z,56.7
2022-09-13T16:00:56.578Z,58.9
2022-09-13T16:07:07.175Z,60.6
2022-09-13T16:13:17.885Z,58.6
2022-09-13T16:19:28.517Z,60.9
2022-09-13T16:25:39.186Z,63.5
2022-09-13T16:31:50.079Z,66.2
2022-09-13T16:37:52.328Z,70.2
2022-09-13T16:46:31.399Z,70.7
2022-09-13T16:52:41.952Z,72.5
2022-09-13T16:58:52.626Z,74
2022-09-13T17:05:03.280Z,77.6
2022-09-13T17:11:13.952Z,80.4
2022-09-13T17:17:24.607Z,83.9
2022-09-13T17:23:35.252Z,86.3
2022-09-13T17:29:46.082Z,88.9
2022-09-13T17:35:56.605Z,89.4
2022-09-13T17:43:13.210Z,95
2022-09-13T17:48:26.230Z,96.4
2022-09-13T17:54:36.812Z,99.9
2022-09-13T18:00:47.444Z,100
2022-09-13T18:05:52.211Z,100
2022-09-13T18:12:02.843Z,100
2022-09-13T18:18:13.518Z,100
2022-09-13T18:24:24.226Z,100
2022-09-13T18:30:34.853Z,100
2022-09-13T18:36:45.498Z,100
2022-09-13T18:42:48.026Z,100
2022-09-13T18:48:58.676Z,100
2022-09-13T18:55:09.331Z,100
2022-09-13T19:01:20.216Z,100
2022-09-13T19:07:30.697Z,100
2022-09-13T19:13:41.322Z,100
2022-09-13T19:19:52.029Z,100
2022-09-13T19:26:02.661Z,100
2022-09-13T19:32:13.355Z,100
2022-09-13T19:38:24.005Z,100
2022-09-13T19:44:26.487Z,100
2022-09-13T19:50:37.139Z,100
2022-09-13T19:56:47.912Z,100
2022-09-13T20:02:58.495Z,100
2022-09-13T20:09:09.128Z,100
2022-09-13T20:15:19.923Z,100
2022-09-13T20:20:32.739Z,100
2022-09-13T20:26:43.399Z,100
2022-09-13T20:32:54.183Z,100
2022-09-13T20:39:04.763Z,100
2022-09-13T20:45:07.238Z,100
2022-09-13T20:51:17.882Z,100
2022-09-13T20:57:28.529Z,100
2022-09-13T21:03:39.230Z,100
2022-09-13T21:09:49.888Z,100
2022-09-13T21:16:00.548Z,100
2022-09-13T21:22:11.210Z,100
2022-09-13T21:28:22.147Z,100
2022-09-13T21:34:32.535Z,100
2022-09-13T21:40:35.009Z,100
2022-09-13T21:46:46.707Z,100
2022-09-13T21:52:56.364Z,100
2022-09-13T21:59:07.036Z,100
2022-09-13T22:05:17.714Z,100
2022-09-13T22:11:28.438Z,100
2022-09-13T22:16:33.117Z,100
2022-09-13T22:22:43.898Z,100
2022-09-13T22:28:54.422Z,100
2022-09-13T22:35:05.117Z,100
2022-09-13T22:41:07.575Z,100
2022-09-13T22:47:34.633Z,100
2022-09-13T22:53:45.288Z,100
2022-09-13T22:59:55.987Z,100
2022-09-13T23:06:06.610Z,100
2022-09-13T23:12:17.307Z,100
2022-09-13T23:18:27.955Z,100
2022-09-13T23:24:38.602Z,100
2022-09-13T23:30:49.322Z,100
2022-09-13T23:36:59.972Z,100
2022-09-13T23:44:16.574Z,100
2022-09-13T23:50:27.243Z,100
2022-09-13T23:56:38.042Z,100
